Time,TemperatureF,DewpointF,PressureIn,WindDirection,WindDirectionDegrees,WindSpeedMPH,WindSpeedGustMPH,Humidity,HourlyPrecipIn,Conditions,Clouds,dailyrainin,SoftwareType,DateUTC
2013-07-02 00:00:00,62.9,61.7,29.90,SSE,155,0.0,0.0,96,0.00,,,0.00,Wunderground v.1.15,2013-07-02 04:00:00,
2013-07-02 00:05:00,62.9,61.7,29.90,SSE,149,0.0,0.0,96,0.00,,,0.00,Wunderground v.1.15,2013-07-02 04:05:00,
2013-07-02 00:10:00,62.8,61.6,29.90,SE,132,0.0,1.0,96,0.00,,,0.00,Wunderground v.1.15,2013-07-02 04:10:00,
2013-07-02 00:20:00,62.8,61.9,29.90,SE,124,0.0,0.0,97,0.00,,,0.00,Wunderground v.1.15,2013-07-02 04:20:00,
2013-07-02 00:25:00,62.8,61.9,29.90,ESE,119,0.0,0.0,97,0.00,,,0.00,Wunderground v.1.15,2013-07-02 04:25:00,
2013-07-02 00:30:00,62.6,61.7,29.91,ESE,119,0.0,0.0,97,0.00,,,0.00,Wunderground v.1.15,2013-07-02 04:30:00,
2013-07-02 00:35:00,62.6,61.7,29.91,SE,125,0.0,0.0,97,0.00,,,0.00,Wunderground v.1.15,2013-07-02 04:35:00,
2013-07-02 00:40:00,62.6,61.7,29.91,SE,133,0.0,0.0,97,0.00,,,0.00,Wunderground v.1.15,2013-07-02 04:40:00,
2013-07-02 00:45:00,62.6,61.7,29.91,SE,132,0.0,0.0,97,0.00,,,0.00,Wunderground v.1.15,2013-07-02 04:45:00,
2013-07-02 00:50:00,62.6,61.7,29.91,SE,129,0.0,0.0,97,0.00,,,0.00,Wunderground v.1.15,2013-07-02 04:50:00,
2013-07-02 00:55:00,62.6,61.7,29.91,South,170,0.0,0.0,97,0.00,,,0.00,Wunderground v.1.15,2013-07-02 04:55:00,
2013-07-02 01:00:00,62.6,61.7,29.91,SSE,157,0.0,0.0,97,0.00,,,0.00,Wunderground v.1.15,2013-07-02 05:00:00,
2013-07-02 04:35:00,63.6,62.7,29.92,SSW,200,0.0,0.0,97,0.00,,,0.00,Wunderground v.1.15,2013-07-02 08:35:00,
2013-07-02 04:45:00,63.6,62.7,29.92,SSW,197,0.0,0.0,97,0.00,,,0.00,Wunderground v.1.15,2013-07-02 08:45:00,
2013-07-02 04:55:00,63.6,62.7,29.92,SSE,148,0.0,0.0,97,0.00,,,0.00,Wunderground v.1.15,2013-07-02 08:55:00,
2013-07-02 05:00:00,63.7,62.8,29.92,South,179,0.0,0.0,97,0.00,,,0.00,Wunderground v.1.15,2013-07-02 09:00:00,
2013-07-02 05:05:00,63.7,62.8,29.92,SE,146,0.0,0.0,97,0.00,,,0.00,Wunderground v.1.15,2013-07-02 09:05:00,
2013-07-02 05:10:00,63.7,62.8,29.92,SSE,149,0.0,0.0,97,0.00,,,0.00,Wunderground v.1.15,2013-07-02 09:10:00,
2013-07-02 05:15:00,63.7,62.8,29.92,SSE,148,0.0,0.0,97,0.00,,,0.00,Wunderground v.1.15,2013-07-02 09:15:00,
2013-07-02 05:25:00,63.8,62.9,29.92,SE,146,0.0,0.0,97,0.00,,,0.00,Wunderground v.1.15,2013-07-02 09:25:00,
2013-07-02 05:30:00,63.8,62.9,29.92,SE,146,0.0,0.0,97,0.00,,,0.00,Wunderground v.1.15,2013-07-02 09:30:00,
2013-07-02 05:35:00,63.8,62.9,29.92,SE,145,0.0,0.0,97,0.00,,,0.00,Wunderground v.1.15,2013-07-02 09:35:00,
2013-07-02 05:40:00,63.9,63.3,29.92,SE,144,0.0,0.0,98,0.00,,,0.01,Wunderground v.1.15,2013-07-02 09:40:00,
2013-07-02 05:45:00,64.1,63.5,29.92,SE,130,0.0,0.0,98,0.00,,,0.01,Wunderground v.1.15,2013-07-02 09:45:00,
2013-07-02 05:50:00,64.1,63.5,29.92,SSE,157,0.0,0.0,98,0.11,,,0.02,Wunderground v.1.15,2013-07-02 09:50:00,
2013-07-02 05:55:00,64.1,63.2,29.92,SSE,156,0.0,0.0,97,0.25,,,0.04,Wunderground v.1.15,2013-07-02 09:55:00,
2013-07-02 06:00:00,64.1,63.2,29.92,SSE,157,0.0,0.0,97,0.21,,,0.06,Wunderground v.1.15,2013-07-02 10:00:00,
2013-07-02 06:05:00,64.1,63.2,29.93,SSE,157,0.0,0.0,97,1.96,,,0.10,Wunderground v.1.15,2013-07-02 10:05:00,
2013-07-02 06:10:00,64.2,63.3,29.93,SE,146,0.0,0.0,97,0.53,,,0.17,Wunderground v.1.15,2013-07-02 10:10:00,
2013-07-02 06:15:00,64.1,63.2,29.93,SE,129,0.0,0.0,97,0.70,,,0.20,Wunderground v.1.15,2013-07-02 10:15:00,
2013-07-02 06:20:00,64.2,63.3,29.94,SSE,162,1.0,5.0,97,0.32,,,0.24,Wunderground v.1.15,2013-07-02 10:20:00,
2013-07-02 06:25:00,64.1,63.2,29.94,SSE,153,2.0,5.0,97,0.09,,,0.24,Wunderground v.1.15,2013-07-02 10:25:00,
2013-07-02 06:30:00,64.0,63.1,29.95,ESE,102,2.0,2.0,97,0.05,,,0.24,Wunderground v.1.15,2013-07-02 10:30:00,
2013-07-02 06:40:00,63.8,62.9,29.95,ESE,118,2.0,2.0,97,0.00,,,0.24,Wunderground v.1.15,2013-07-02 10:40:00,
2013-07-02 06:45:00,63.8,62.9,29.95,SSW,192,1.0,2.0,97,0.00,,,0.24,Wunderground v.1.15,2013-07-02 10:45:00,
2013-07-02 06:50:00,63.8,62.9,29.96,SSE,153,0.0,1.0,97,0.00,,,0.24,Wunderground v.1.15,2013-07-02 10:50:00,
2013-07-02 06:55:00,63.7,62.8,29.96,ESE,119,0.0,1.0,97,0.00,,,0.24,Wunderground v.1.15,2013-07-02 10:55:00,
2013-07-02 07:00:00,63.7,62.8,29.96,ESE,117,0.0,0.0,97,0.00,,,0.24,Wunderground v.1.15,2013-07-02 11:00:00,
2013-07-02 07:05:00,63.7,62.8,29.95,ESE,121,0.0,0.0,97,0.00,,,0.24,Wunderground v.1.15,2013-07-02 11:05:00,
2013-07-02 07:10:00,63.7,62.8,29.95,East,87,0.0,0.0,97,0.00,,,0.24,Wunderground v.1.15,2013-07-02 11:10:00,
2013-07-02 07:15:00,63.7,62.8,29.96,East,86,0.0,0.0,97,0.00,,,0.24,Wunderground v.1.15,2013-07-02 11:15:00,
2013-07-02 07:20:00,63.7,62.8,29.96,East,86,0.0,0.0,97,0.00,,,0.24,Wunderground v.1.15,2013-07-02 11:20:00,
2013-07-02 07:25:00,63.7,62.8,29.96,East,86,0.0,0.0,97,0.00,,,0.24,Wunderground v.1.15,2013-07-02 11:25:00,
2013-07-02 07:35:00,63.9,63.0,29.96,SSW,204,0.0,0.0,97,0.00,,,0.24,Wunderground v.1.15,2013-07-02 11:35:00,
2013-07-02 07:40:00,64.0,63.1,29.96,East,93,0.0,0.0,97,0.00,,,0.24,Wunderground v.1.15,2013-07-02 11:40:00,
2013-07-02 07:45:00,64.0,63.1,29.97,East,91,0.0,0.0,97,0.00,,,0.24,Wunderground v.1.15,2013-07-02 11:45:00,
2013-07-02 07:50:00,64.1,63.2,29.97,SSW,203,0.0,0.0,97,0.00,,,0.25,Wunderground v.1.15,2013-07-02 11:50:00,
2013-07-02 07:55:00,64.1,63.2,29.97,SSE,164,0.0,0.0,97,0.00,,,0.25,Wunderground v.1.15,2013-07-02 11:55:00,
2013-07-02 08:00:00,64.1,63.2,29.97,SE,139,0.0,0.0,97,0.00,,,0.25,Wunderground v.1.15,2013-07-02 12:00:00,
2013-07-02 08:05:00,64.1,63.2,29.97,East,101,0.0,0.0,97,0.00,,,0.25,Wunderground v.1.15,2013-07-02 12:05:00,
2013-07-02 08:10:00,64.2,63.3,29.97,East,100,0.0,0.0,97,0.00,,,0.25,Wunderground v.1.15,2013-07-02 12:10:00,
2013-07-02 08:15:00,64.3,63.4,29.97,ESE,102,0.0,0.0,97,0.00,,,0.25,Wunderground v.1.15,2013-07-02 12:15:00,
2013-07-02 08:20:00,64.4,63.5,29.97,East,101,0.0,0.0,97,0.00,,,0.25,Wunderground v.1.15,2013-07-02 12:20:00,
2013-07-02 08:25:00,64.5,63.6,29.97,ESE,110,0.0,0.0,97,0.00,,,0.25,Wunderground v.1.15,2013-07-02 12:25:00,
2013-07-02 08:30:00,64.5,63.6,29.97,East,101,0.0,0.0,97,0.00,,,0.25,Wunderground v.1.15,2013-07-02 12:30:00,
2013-07-02 08:35:00,64.6,63.7,29.97,ESE,106,0.0,0.0,97,0.00,,,0.25,Wunderground v.1.15,2013-07-02 12:35:00,
2013-07-02 08:40:00,64.7,63.8,29.98,South,191,0.0,1.0,97,0.00,,,0.25,Wunderground v.1.15,2013-07-02 12:40:00,
2013-07-02 08:45:00,64.7,63.8,29.97,ESE,102,0.0,1.0,97,0.00,,,0.25,Wunderground v.1.15,2013-07-02 12:45:00,
2013-07-02 08:50:00,64.7,63.8,29.98,ESE,104,0.0,0.0,97,0.00,,,0.25,Wunderground v.1.15,2013-07-02 12:50:00,
2013-07-02 08:55:00,64.9,64.0,29.98,South,183,0.0,1.0,97,0.00,,,0.25,Wunderground v.1.15,2013-07-02 12:55:00,
2013-07-02 09:00:00,65.1,64.2,29.98,SE,124,1.0,1.0,97,0.00,,,0.25,Wunderground v.1.15,2013-07-02 13:00:00,
2013-07-02 09:05:00,65.2,64.3,29.98,ESE,108,1.0,1.0,97,0.00,,,0.25,Wunderground v.1.15,2013-07-02 13:05:00,
2013-07-02 09:10:00,65.4,64.5,29.98,East,101,0.0,3.0,97,0.00,,,0.25,Wunderground v.1.15,2013-07-02 13:10:00,
2013-07-02 09:15:00,65.5,64.6,29.98,SSE,160,1.0,3.0,97,0.00,,,0.25,Wunderground v.1.15,2013-07-02 13:15:00,
2013-07-02 09:20:00,65.7,64.8,29.98,East,101,1.0,1.0,97,0.00,,,0.25,Wunderground v.1.15,2013-07-02 13:20:00,
2013-07-02 09:25:00,65.8,64.6,29.98,SE,141,1.0,1.0,96,0.00,,,0.25,Wunderground v.1.15,2013-07-02 13:25:00,
2013-07-02 09:30:00,65.8,64.6,29.98,East,101,1.0,2.0,96,0.00,,,0.25,Wunderground v.1.15,2013-07-02 13:30:00,
2013-07-02 09:35:00,65.9,64.7,29.99,ESE,105,1.0,2.0,96,0.00,,,0.25,Wunderground v.1.15,2013-07-02 13:35:00,
2013-07-02 09:40:00,66.0,64.8,29.99,East,98,1.0,1.0,96,0.00,,,0.25,Wunderground v.1.15,2013-07-02 13:40:00,
2013-07-02 09:50:00,66.3,65.1,29.99,SE,132,1.0,4.0,96,0.00,,,0.25,Wunderground v.1.15,2013-07-02 13:50:00,
2013-07-02 10:00:00,66.5,65.0,29.99,SSE,154,2.0,2.0,95,0.00,,,0.25,Wunderground v.1.15,2013-07-02 14:00:00,
2013-07-02 10:10:00,66.9,65.4,29.99,SE,128,2.0,2.0,95,0.00,,,0.25,Wunderground v.1.15,2013-07-02 14:10:00,
2013-07-02 10:15:00,67.3,65.5,29.99,South,181,2.0,2.0,94,0.00,,,0.25,Wunderground v.1.15,2013-07-02 14:15:00,
2013-07-02 10:20:00,67.6,65.5,29.99,SE,134,2.0,2.0,93,0.00,,,0.25,Wunderground v.1.15,2013-07-02 14:20:00,
2013-07-02 10:25:00,67.8,65.1,29.99,SSE,159,3.0,3.0,91,0.00,,,0.25,Wunderground v.1.15,2013-07-02 14:25:00,
2013-07-02 10:30:00,68.3,65.9,29.99,SE,146,2.0,2.0,92,0.00,,,0.25,Wunderground v.1.15,2013-07-02 14:30:00,
2013-07-02 10:35:00,68.5,65.8,29.99,SSE,149,2.0,2.0,91,0.00,,,0.25,Wunderground v.1.15,2013-07-02 14:35:00,
2013-07-02 10:40:00,68.4,65.4,29.99,ESE,103,2.0,2.0,90,0.00,,,0.25,Wunderground v.1.15,2013-07-02 14:40:00,
2013-07-02 10:45:00,68.6,66.2,30.00,ESE,108,2.0,5.0,92,0.00,,,0.25,Wunderground v.1.15,2013-07-02 14:45:00,
2013-07-02 10:50:00,69.3,65.9,29.99,ESE,116,3.0,4.0,89,0.00,,,0.25,Wunderground v.1.15,2013-07-02 14:50:00,
2013-07-02 10:55:00,70.0,66.6,29.99,East,93,3.0,4.0,89,0.00,,,0.25,Wunderground v.1.15,2013-07-02 14:55:00,
2013-07-02 11:00:00,70.3,66.2,29.99,SSE,168,3.0,3.0,87,0.00,,,0.25,Wunderground v.1.15,2013-07-02 15:00:00,
2013-07-02 11:05:00,70.3,65.9,29.99,SSE,152,3.0,6.0,86,0.00,,,0.25,Wunderground v.1.15,2013-07-02 15:05:00,
2013-07-02 11:10:00,70.8,66.7,29.99,SE,137,3.0,3.0,87,0.00,,,0.25,Wunderground v.1.15,2013-07-02 15:10:00,
2013-07-02 11:15:00,71.1,66.4,29.99,WSW,255,3.0,3.0,85,0.00,,,0.25,Wunderground v.1.15,2013-07-02 15:15:00,
2013-07-02 11:25:00,70.7,65.6,29.99,SE,141,2.0,3.0,84,0.00,,,0.25,Wunderground v.1.15,2013-07-02 15:25:00,
2013-07-02 11:35:00,70.7,66.3,29.99,WSW,252,1.0,1.0,86,0.00,,,0.25,Wunderground v.1.15,2013-07-02 15:35:00,
2013-07-02 11:40:00,70.4,65.0,29.99,East,90,1.0,1.0,83,0.00,,,0.25,Wunderground v.1.15,2013-07-02 15:40:00,
2013-07-02 11:45:00,70.4,65.3,29.99,SSE,166,2.0,2.0,84,0.00,,,0.25,Wunderground v.1.15,2013-07-02 15:45:00,
2013-07-02 11:50:00,71.1,65.7,30.00,East,80,1.0,1.0,83,0.00,,,0.25,Wunderground v.1.15,2013-07-02 15:50:00,
2013-07-02 11:55:00,71.8,66.0,29.99,WSW,245,1.0,1.0,82,0.00,,,0.25,Wunderground v.1.15,2013-07-02 15:55:00,
2013-07-02 12:00:00,72.3,65.8,29.99,SSW,207,2.0,2.0,80,0.00,,,0.25,Wunderground v.1.15,2013-07-02 16:00:00,
2013-07-02 12:05:00,72.8,65.9,29.99,SSE,155,2.0,2.0,79,0.00,,,0.25,Wunderground v.1.15,2013-07-02 16:05:00,
2013-07-02 12:10:00,73.0,65.4,29.98,South,179,1.0,2.0,77,0.00,,,0.25,Wunderground v.1.15,2013-07-02 16:10:00,
2013-07-02 12:15:00,73.0,65.4,29.99,ESE,107,1.0,2.0,77,0.00,,,0.25,Wunderground v.1.15,2013-07-02 16:15:00,
2013-07-02 12:20:00,73.5,66.2,29.99,West,264,2.0,2.0,78,0.00,,,0.25,Wunderground v.1.15,2013-07-02 16:20:00,
2013-07-02 12:25:00,73.7,66.0,29.98,WSW,245,2.0,2.0,77,0.00,,,0.25,Wunderground v.1.15,2013-07-02 16:25:00,
2013-07-02 12:30:00,73.5,66.2,29.98,ESE,118,1.0,3.0,78,0.00,,,0.25,Wunderground v.1.15,2013-07-02 16:30:00,
2013-07-02 12:35:00,73.6,65.9,29.99,ESE,105,2.0,3.0,77,0.00,,,0.25,Wunderground v.1.15,2013-07-02 16:35:00,
2013-07-02 12:40:00,73.9,65.9,29.98,SW,218,3.0,3.0,76,0.00,,,0.25,Wunderground v.1.15,2013-07-02 16:40:00,
2013-07-02 12:45:00,74.1,65.3,29.99,SE,127,3.0,3.0,74,0.00,,,0.25,Wunderground v.1.15,2013-07-02 16:45:00,
2013-07-02 12:50:00,73.8,64.2,29.99,SSE,156,2.0,2.0,72,0.00,,,0.25,Wunderground v.1.15,2013-07-02 16:50:00,
2013-07-02 12:55:00,73.6,65.2,29.99,West,270,2.0,2.0,75,0.00,,,0.25,Wunderground v.1.15,2013-07-02 16:55:00,
2013-07-02 13:05:00,73.6,65.6,29.99,SW,229,2.0,4.0,76,0.00,,,0.25,Wunderground v.1.15,2013-07-02 17:05:00,
2013-07-02 13:10:00,74.1,66.0,29.98,SE,129,2.0,2.0,76,0.00,,,0.25,Wunderground v.1.15,2013-07-02 17:10:00,
2013-07-02 13:20:00,74.0,65.6,29.99,ESE,109,3.0,3.0,75,0.00,,,0.25,Wunderground v.1.15,2013-07-02 17:20:00,
2013-07-02 13:25:00,74.2,65.8,29.99,East,91,3.0,3.0,75,0.00,,,0.25,Wunderground v.1.15,2013-07-02 17:25:00,
2013-07-02 13:30:00,74.4,65.6,29.98,SSE,162,3.0,6.0,74,0.00,,,0.25,Wunderground v.1.15,2013-07-02 17:30:00,
2013-07-02 13:35:00,74.9,66.1,29.99,NW,320,3.0,6.0,74,0.00,,,0.25,Wunderground v.1.15,2013-07-02 17:35:00,
2013-07-02 13:40:00,74.9,65.7,29.98,ESE,106,3.0,3.0,73,0.00,,,0.25,Wunderground v.1.15,2013-07-02 17:40:00,
2013-07-02 13:45:00,75.0,66.9,29.98,SSE,160,3.0,3.0,76,0.00,,,0.25,Wunderground v.1.15,2013-07-02 17:45:00,
2013-07-02 13:50:00,75.0,66.5,29.98,East,79,2.0,3.0,75,0.00,,,0.25,Wunderground v.1.15,2013-07-02 17:50:00,
2013-07-02 13:55:00,74.5,66.8,29.98,SSE,155,3.0,3.0,77,0.00,,,0.25,Wunderground v.1.15,2013-07-02 17:55:00,
2013-07-02 14:00:00,74.4,67.1,29.98,SE,137,3.0,3.0,78,0.00,,,0.25,Wunderground v.1.15,2013-07-02 18:00:00,
2013-07-02 14:05:00,74.4,66.7,29.98,ESE,114,2.0,3.0,77,0.00,,,0.25,Wunderground v.1.15,2013-07-02 18:05:00,
2013-07-02 14:10:00,74.3,66.6,29.98,SSE,167,2.0,2.0,77,0.00,,,0.25,Wunderground v.1.15,2013-07-02 18:10:00,
2013-07-02 14:15:00,74.8,67.1,29.98,SE,129,2.0,2.0,77,0.00,,,0.25,Wunderground v.1.15,2013-07-02 18:15:00,
2013-07-02 14:20:00,74.6,66.5,29.98,ESE,102,1.0,1.0,76,0.00,,,0.25,Wunderground v.1.15,2013-07-02 18:20:00,
2013-07-02 14:25:00,74.2,66.5,29.98,East,101,1.0,1.0,77,0.00,,,0.25,Wunderground v.1.15,2013-07-02 18:25:00,
2013-07-02 14:30:00,74.0,66.3,29.98,South,187,1.0,1.0,77,0.00,,,0.25,Wunderground v.1.15,2013-07-02 18:30:00,
2013-07-02 14:35:00,74.0,66.0,29.98,WSW,245,0.0,1.0,76,0.00,,,0.25,Wunderground v.1.15,2013-07-02 18:35:00,
2013-07-02 14:40:00,73.8,66.9,29.98,South,169,0.0,3.0,79,0.00,,,0.25,Wunderground v.1.15,2013-07-02 18:40:00,
2013-07-02 14:45:00,73.5,66.6,29.98,ESE,111,1.0,3.0,79,0.00,,,0.25,Wunderground v.1.15,2013-07-02 18:45:00,
2013-07-02 14:50:00,73.9,67.3,29.98,South,173,2.0,3.0,80,0.00,,,0.25,Wunderground v.1.15,2013-07-02 18:50:00,
2013-07-02 14:55:00,74.8,67.1,29.98,SE,143,2.0,3.0,77,0.00,,,0.25,Wunderground v.1.15,2013-07-02 18:55:00,
2013-07-02 15:00:00,75.3,67.6,29.98,SW,231,3.0,4.0,77,0.00,,,0.25,Wunderground v.1.15,2013-07-02 19:00:00,
2013-07-02 15:10:00,76.1,67.2,29.97,ESE,102,2.0,2.0,74,0.00,,,0.25,Wunderground v.1.15,2013-07-02 19:10:00,
2013-07-02 15:15:00,75.9,67.0,29.97,ESE,108,3.0,3.0,74,0.00,,,0.25,Wunderground v.1.15,2013-07-02 19:15:00,
2013-07-02 15:20:00,75.7,67.6,29.98,SE,133,2.0,2.0,76,0.00,,,0.25,Wunderground v.1.15,2013-07-02 19:20:00,
2013-07-02 15:25:00,75.7,67.2,29.97,SSE,155,2.0,2.0,75,0.00,,,0.25,Wunderground v.1.15,2013-07-02 19:25:00,
2013-07-02 15:30:00,76.0,67.9,29.97,SSW,213,1.0,3.0,76,0.00,,,0.25,Wunderground v.1.15,2013-07-02 19:30:00,
2013-07-02 15:40:00,76.1,67.2,29.97,SW,218,2.0,2.0,74,0.00,,,0.25,Wunderground v.1.15,2013-07-02 19:40:00,
2013-07-02 15:50:00,75.7,67.6,29.97,SE,129,3.0,4.0,76,0.00,,,0.25,Wunderground v.1.15,2013-07-02 19:50:00,
2013-07-02 15:55:00,75.8,67.3,29.97,South,191,3.0,4.0,75,0.00,,,0.25,Wunderground v.1.15,2013-07-02 19:55:00,
2013-07-02 16:00:00,75.5,67.0,29.97,SSE,156,3.0,3.0,75,0.00,,,0.25,Wunderground v.1.15,2013-07-02 20:00:00,
2013-07-02 16:05:00,75.0,67.3,29.98,SE,141,3.0,3.0,77,0.00,,,0.25,Wunderground v.1.15,2013-07-02 20:05:00,
2013-07-02 16:10:00,74.5,67.9,29.98,ESE,121,2.0,2.0,80,0.00,,,0.25,Wunderground v.1.15,2013-07-02 20:10:00,
2013-07-02 16:15:00,74.3,67.7,29.98,South,190,2.0,3.0,80,0.00,,,0.25,Wunderground v.1.15,2013-07-02 20:15:00,
2013-07-02 16:20:00,74.9,67.6,29.97,ESE,118,3.0,3.0,78,0.00,,,0.25,Wunderground v.1.15,2013-07-02 20:20:00,
2013-07-02 16:25:00,75.2,67.5,29.97,East,94,3.0,3.0,77,0.00,,,0.25,Wunderground v.1.15,2013-07-02 20:25:00,
2013-07-02 16:30:00,75.3,68.0,29.97,ESE,115,3.0,5.0,78,0.00,,,0.25,Wunderground v.1.15,2013-07-02 20:30:00,
2013-07-02 16:35:00,74.6,67.7,29.98,SE,130,3.0,5.0,79,0.00,,,0.25,Wunderground v.1.15,2013-07-02 20:35:00,
2013-07-02 16:40:00,73.9,67.3,29.98,ESE,118,3.0,3.0,80,0.00,,,0.25,Wunderground v.1.15,2013-07-02 20:40:00,
2013-07-02 16:45:00,73.5,67.3,29.98,SSE,152,3.0,3.0,81,0.00,,,0.25,Wunderground v.1.15,2013-07-02 20:45:00,
2013-07-02 16:50:00,73.4,67.2,29.98,ESE,118,2.0,4.0,81,0.00,,,0.25,Wunderground v.1.15,2013-07-02 20:50:00,
2013-07-02 16:55:00,73.2,67.0,29.98,SE,125,3.0,4.0,81,0.00,,,0.25,Wunderground v.1.15,2013-07-02 20:55:00,
2013-07-02 17:00:00,73.1,66.6,29.98,East,86,3.0,3.0,80,0.00,,,0.25,Wunderground v.1.15,2013-07-02 21:00:00,
2013-07-02 17:05:00,72.9,66.4,29.99,SSE,163,4.0,4.0,80,0.00,,,0.25,Wunderground v.1.15,2013-07-02 21:05:00,
2013-07-02 17:10:00,72.5,66.3,29.98,East,80,4.0,4.0,81,0.00,,,0.25,Wunderground v.1.15,2013-07-02 21:10:00,
2013-07-02 17:15:00,72.3,66.5,29.98,SSE,162,4.0,4.0,82,0.00,,,0.25,Wunderground v.1.15,2013-07-02 21:15:00,
2013-07-02 17:20:00,72.0,66.2,29.98,SSE,160,4.0,5.0,82,0.00,,,0.25,Wunderground v.1.15,2013-07-02 21:20:00,
2013-07-02 17:25:00,71.8,66.7,29.98,SE,143,3.0,5.0,84,0.00,,,0.25,Wunderground v.1.15,2013-07-02 21:25:00,
2013-07-02 17:30:00,71.6,66.5,29.99,SW,224,2.0,3.0,84,0.00,,,0.25,Wunderground v.1.15,2013-07-02 21:30:00,
2013-07-02 17:35:00,71.4,66.3,29.99,East,92,1.0,3.0,84,0.00,,,0.25,Wunderground v.1.15,2013-07-02 21:35:00,
2013-07-02 17:40:00,71.0,64.9,29.99,SE,127,1.0,1.0,81,0.00,,,0.25,Wunderground v.1.15,2013-07-02 21:40:00,
2013-07-02 17:45:00,70.5,65.4,30.00,ESE,118,2.0,4.0,84,0.00,,,0.26,Wunderground v.1.15,2013-07-02 21:45:00,
2013-07-02 17:50:00,69.8,65.4,29.99,East,101,2.0,2.0,86,0.00,,,0.26,Wunderground v.1.15,2013-07-02 21:50:00,
2013-07-02 17:55:00,69.6,65.9,29.99,SE,127,1.0,2.0,88,0.00,,,0.26,Wunderground v.1.15,2013-07-02 21:55:00,
2013-07-02 18:00:00,69.5,65.8,29.99,SSE,158,1.0,2.0,88,0.00,,,0.26,Wunderground v.1.15,2013-07-02 22:00:00,
2013-07-02 18:05:00,69.5,65.8,29.99,SE,143,2.0,2.0,88,0.00,,,0.26,Wunderground v.1.15,2013-07-02 22:05:00,
2013-07-02 18:10:00,69.7,66.3,29.99,SSW,211,2.0,4.0,89,0.00,,,0.26,Wunderground v.1.15,2013-07-02 22:10:00,
2013-07-02 18:15:00,69.7,66.3,29.99,SSE,164,2.0,4.0,89,0.00,,,0.26,Wunderground v.1.15,2013-07-02 22:15:00,
2013-07-02 18:20:00,69.7,66.3,29.99,ESE,122,2.0,2.0,89,0.00,,,0.27,Wunderground v.1.15,2013-07-02 22:20:00,
2013-07-02 18:25:00,69.6,66.5,29.99,SSE,148,2.0,2.0,90,0.18,,,0.29,Wunderground v.1.15,2013-07-02 22:25:00,
2013-07-02 18:30:00,69.5,66.4,29.99,SSE,163,2.0,3.0,90,0.11,,,0.29,Wunderground v.1.15,2013-07-02 22:30:00,
2013-07-02 18:35:00,69.5,66.4,30.00,SSE,160,2.0,3.0,90,0.06,,,0.29,Wunderground v.1.15,2013-07-02 22:35:00,
2013-07-02 18:40:00,69.5,66.4,29.99,SSE,149,2.0,2.0,90,0.04,,,0.29,Wunderground v.1.15,2013-07-02 22:40:00,
2013-07-02 18:45:00,69.7,66.6,30.00,South,191,2.0,2.0,90,0.00,,,0.29,Wunderground v.1.15,2013-07-02 22:45:00,
2013-07-02 18:50:00,69.8,66.7,29.99,ESE,122,2.0,3.0,90,0.00,,,0.29,Wunderground v.1.15,2013-07-02 22:50:00,
2013-07-02 18:55:00,69.8,66.7,30.00,East,91,2.0,3.0,90,0.00,,,0.29,Wunderground v.1.15,2013-07-02 22:55:00,
2013-07-02 19:00:00,69.8,66.7,30.00,ESE,116,2.0,2.0,90,0.00,,,0.29,Wunderground v.1.15,2013-07-02 23:00:00,
2013-07-02 19:05:00,69.8,67.1,30.00,ESE,115,2.0,3.0,91,0.00,,,0.29,Wunderground v.1.15,2013-07-02 23:05:00,
2013-07-02 19:10:00,69.7,67.0,30.01,SE,136,2.0,2.0,91,0.00,,,0.29,Wunderground v.1.15,2013-07-02 23:10:00,
2013-07-02 19:15:00,69.4,66.3,30.01,ESE,121,2.0,2.0,90,0.00,,,0.29,Wunderground v.1.15,2013-07-02 23:15:00,
2013-07-02 19:20:00,69.2,66.1,30.01,SSE,163,2.0,2.0,90,0.00,,,0.29,Wunderground v.1.15,2013-07-02 23:20:00,
2013-07-02 19:25:00,69.2,66.5,30.01,SE,136,2.0,2.0,91,0.00,,,0.29,Wunderground v.1.15,2013-07-02 23:25:00,
2013-07-02 19:30:00,69.1,66.4,30.01,SE,133,2.0,2.0,91,0.00,,,0.29,Wunderground v.1.15,2013-07-02 23:30:00,
2013-07-02 19:35:00,69.0,66.6,30.01,SE,133,2.0,2.0,92,0.00,,,0.29,Wunderground v.1.15,2013-07-02 23:35:00,
2013-07-02 19:40:00,69.0,66.6,30.01,South,173,2.0,2.0,92,0.00,,,0.29,Wunderground v.1.15,2013-07-02 23:40:00,
2013-07-02 19:45:00,68.9,66.8,30.01,South,190,2.0,4.0,93,0.00,,,0.29,Wunderground v.1.15,2013-07-02 23:45:00,
2013-07-02 19:55:00,68.8,66.7,30.03,SSE,148,2.0,2.0,93,0.00,,,0.29,Wunderground v.1.15,2013-07-02 23:55:00,
2013-07-02 20:00:00,68.7,66.6,30.02,SSE,159,1.0,1.0,93,0.00,,,0.29,Wunderground v.1.15,2013-07-03 00:00:00,
2013-07-02 20:10:00,68.6,66.5,30.03,SSE,167,1.0,3.0,93,0.00,,,0.29,Wunderground v.1.15,2013-07-03 00:10:00,
2013-07-02 20:15:00,68.5,66.4,30.03,East,87,2.0,3.0,93,0.00,,,0.29,Wunderground v.1.15,2013-07-03 00:15:00,
2013-07-02 20:20:00,68.5,66.4,30.03,SSE,160,2.0,2.0,93,0.00,,,0.29,Wunderground v.1.15,2013-07-03 00:20:00,
2013-07-02 20:25:00,68.5,66.4,30.04,East,98,2.0,2.0,93,0.00,,,0.29,Wunderground v.1.15,2013-07-03 00:25:00,
2013-07-02 20:30:00,68.4,66.3,30.04,ESE,122,2.0,2.0,93,0.00,,,0.29,Wunderground v.1.15,2013-07-03 00:30:00,
2013-07-02 20:35:00,68.3,66.5,30.04,SE,143,2.0,2.0,94,0.00,,,0.29,Wunderground v.1.15,2013-07-03 00:35:00,
2013-07-02 20:40:00,68.2,66.4,30.04,SE,137,2.0,2.0,94,0.00,,,0.29,Wunderground v.1.15,2013-07-03 00:40:00,
2013-07-02 20:45:00,68.1,66.3,30.04,ESE,110,2.0,2.0,94,0.00,,,0.29,Wunderground v.1.15,2013-07-03 00:45:00,
2013-07-02 20:50:00,68.0,66.2,30.04,SSE,149,3.0,3.0,94,0.00,,,0.29,Wunderground v.1.15,2013-07-03 00:50:00,
2013-07-02 20:55:00,67.9,66.1,30.03,SE,138,2.0,3.0,94,0.00,,,0.29,Wunderground v.1.15,2013-07-03 00:55:00,
2013-07-02 21:00:00,67.8,66.3,30.04,East,100,2.0,2.0,95,0.00,,,0.29,Wunderground v.1.15,2013-07-03 01:00:00,
2013-07-02 21:10:00,67.7,66.2,30.04,South,169,3.0,3.0,95,0.00,,,0.29,Wunderground v.1.15,2013-07-03 01:10:00,
2013-07-02 21:15:00,67.6,66.1,30.04,SE,144,3.0,3.0,95,0.00,,,0.29,Wunderground v.1.15,2013-07-03 01:15:00,
2013-07-02 21:20:00,67.6,66.1,30.05,South,191,2.0,3.0,95,0.00,,,0.29,Wunderground v.1.15,2013-07-03 01:20:00,
2013-07-02 21:25:00,67.5,66.0,30.05,ESE,102,2.0,3.0,95,0.00,,,0.29,Wunderground v.1.15,2013-07-03 01:25:00,
2013-07-02 21:35:00,67.4,65.9,30.05,ESE,122,2.0,3.0,95,0.00,,,0.29,Wunderground v.1.15,2013-07-03 01:35:00,
2013-07-02 21:40:00,67.3,65.8,30.05,SE,143,2.0,2.0,95,0.00,,,0.29,Wunderground v.1.15,2013-07-03 01:40:00,
2013-07-02 21:50:00,67.1,65.6,30.05,ESE,118,2.0,2.0,95,0.00,,,0.29,Wunderground v.1.15,2013-07-03 01:50:00,
2013-07-02 21:55:00,67.1,65.6,30.06,SW,217,2.0,5.0,95,0.00,,,0.29,Wunderground v.1.15,2013-07-03 01:55:00,
2013-07-02 22:00:00,67.1,65.6,30.06,ESE,119,3.0,3.0,95,0.00,,,0.29,Wunderground v.1.15,2013-07-03 02:00:00,
2013-07-02 22:05:00,67.2,65.7,30.06,SW,218,3.0,3.0,95,0.00,,,0.29,Wunderground v.1.15,2013-07-03 02:05:00,
2013-07-02 22:15:00,67.1,65.6,30.06,South,177,3.0,4.0,95,0.00,,,0.29,Wunderground v.1.15,2013-07-03 02:15:00,
2013-07-02 22:20:00,67.1,65.6,30.06,SW,217,3.0,5.0,95,0.00,,,0.29,Wunderground v.1.15,2013-07-03 02:20:00,
2013-07-02 22:25:00,67.0,65.5,30.06,SE,134,3.0,5.0,95,0.00,,,0.29,Wunderground v.1.15,2013-07-03 02:25:00,
2013-07-02 22:30:00,66.9,65.4,30.06,SSE,155,2.0,2.0,95,0.00,,,0.29,Wunderground v.1.15,2013-07-03 02:30:00,
2013-07-02 22:40:00,66.7,65.2,30.07,South,176,2.0,2.0,95,0.00,,,0.29,Wunderground v.1.15,2013-07-03 02:40:00,
2013-07-02 22:45:00,66.6,65.1,30.07,SE,141,2.0,3.0,95,0.00,,,0.29,Wunderground v.1.15,2013-07-03 02:45:00,
2013-07-02 22:50:00,66.6,65.1,30.07,SSE,160,2.0,3.0,95,0.00,,,0.29,Wunderground v.1.15,2013-07-03 02:50:00,
2013-07-02 22:55:00,66.6,65.1,30.07,SE,145,2.0,3.0,95,0.00,,,0.29,Wunderground v.1.15,2013-07-03 02:55:00,
2013-07-02 23:00:00,66.5,65.3,30.07,SE,124,2.0,2.0,96,0.00,,,0.29,Wunderground v.1.15,2013-07-03 03:00:00,
2013-07-02 23:15:00,66.6,65.1,30.08,ESE,122,2.0,3.0,95,0.00,,,0.29,Wunderground v.1.15,2013-07-03 03:15:00,
2013-07-02 23:20:00,66.6,65.1,30.08,SE,133,2.0,3.0,95,0.00,,,0.29,Wunderground v.1.15,2013-07-03 03:20:00,
2013-07-02 23:25:00,66.6,65.1,30.08,East,88,2.0,3.0,95,0.00,,,0.29,Wunderground v.1.15,2013-07-03 03:25:00,
2013-07-02 23:30:00,66.6,65.1,30.08,ESE,120,2.0,2.0,95,0.00,,,0.29,Wunderground v.1.15,2013-07-03 03:30:00,
2013-07-02 23:40:00,66.6,65.1,30.08,SSE,149,1.0,1.0,95,0.00,,,0.29,Wunderground v.1.15,2013-07-03 03:40:00,
2013-07-02 23:45:00,66.6,65.1,30.08,SE,143,1.0,1.0,95,0.00,,,0.29,Wunderground v.1.15,2013-07-03 03:45:00,
2013-07-02 23:50:00,66.6,65.1,30.08,East,93,1.0,1.0,95,0.00,,,0.29,Wunderground v.1.15,2013-07-03 03:50:00,